Time;durP1;ratioP1;P1;durP2;ratioP2;P2;SDS_P1;SDS_P2;PMS_P1;PMS_P2;Temp;Humidity;BMP_temperature;BMP_pressure;BME280_temperature;BME280_humidity;BME280_pressure;Samples;Min_cycle;Max_cycle;Signal;HPM_P1;HPM_P2
2023/04/08 00:02:10;0.00;0.00;0.62;0.00;0.00;0.62;1.40;0.90;;;24.70;20.00;;;;;;2273303;61;20547;-62
2023/04/08 00:04:57;0.00;0.00;0.62;0.00;0.00;0.62;1.40;0.80;;;24.70;20.00;;;;;;2272207;61;20362;-62
2023/04/08 00:07:41;0.00;0.00;0.62;0.00;0.00;0.62;1.33;0.70;;;24.70;20.00;;;;;;2272561;61;20390;-62
2023/04/08 00:10:26;0.00;0.00;0.62;0.00;0.00;0.62;1.40;0.90;;;24.70;20.00;;;;;;2272589;61;20390;-62
2023/04/08 00:13:11;0.00;0.00;0.62;0.00;0.00;0.62;1.50;0.87;;;24.70;20.00;;;;;;2272416;61;20913;-61
2023/04/08 00:15:55;0.00;0.00;0.62;0.00;0.00;0.62;1.43;0.80;;;24.70;20.00;;;;;;2272625;61;20382;-63
2023/04/08 00:18:40;0.00;0.00;0.62;0.00;0.00;0.62;1.50;1.00;;;24.70;20.00;;;;;;2272455;61;20418;-62
2023/04/08 00:21:26;0.00;0.00;0.62;0.00;0.00;0.62;1.60;0.83;;;24.70;20.00;;;;;;2269572;61;20413;-62
2023/04/08 00:24:11;0.00;0.00;0.62;0.00;0.00;0.62;1.67;1.10;;;24.60;19.90;;;;;;2272581;61;20909;-62
2023/04/08 00:26:55;0.00;0.00;0.62;0.00;0.00;0.62;1.40;0.80;;;24.60;19.90;;;;;;2272317;61;20438;-62
2023/04/08 00:29:40;0.00;0.00;0.62;0.00;0.00;0.62;1.37;0.90;;;24.60;20.00;;;;;;2269136;61;20439;-62
2023/04/08 00:32:26;0.00;0.00;0.62;0.00;0.00;0.62;1.50;0.90;;;24.60;20.00;;;;;;2273005;61;20413;-62
2023/04/08 00:35:11;0.00;0.00;0.62;0.00;0.00;0.62;1.30;0.80;;;24.60;20.00;;;;;;2268973;61;20888;-61
2023/04/08 00:37:58;0.00;0.00;0.62;0.00;0.00;0.62;1.30;0.80;;;24.60;20.00;;;;;;2269276;61;20910;-62
2023/04/08 00:40:42;0.00;0.00;0.62;0.00;0.00;0.62;1.40;0.80;;;24.60;20.00;;;;;;2271950;61;20382;-64
2023/04/08 00:43:27;0.00;0.00;0.62;0.00;0.00;0.62;1.50;0.80;;;24.60;20.00;;;;;;2272719;61;20421;-65
2023/04/08 00:46:11;0.00;0.00;0.62;0.00;0.00;0.62;1.30;0.90;;;24.60;20.00;;;;;;2272515;61;20358;-61
2023/04/08 00:48:56;0.00;0.00;0.62;0.00;0.00;0.62;1.80;1.00;;;24.60;20.00;;;;;;2272093;61;20420;-62
2023/04/08 00:51:40;0.00;0.00;0.62;0.00;0.00;0.62;1.30;0.70;;;24.60;20.00;;;;;;2269503;61;20553;-62
2023/04/08 00:54:26;0.00;0.00;0.62;0.00;0.00;0.62;1.33;0.70;;;24.60;20.00;;;;;;2269544;61;20397;-59
2023/04/08 00:57:11;0.00;0.00;0.62;0.00;0.00;0.62;1.33;0.77;;;24.60;20.00;;;;;;2272360;61;20454;-63
2023/04/08 00:59:57;0.00;0.00;0.62;0.00;0.00;0.62;1.40;0.73;;;24.60;20.00;;;;;;2272161;61;20900;-63
2023/04/08 01:02:50;0.00;0.00;0.62;0.00;0.00;0.62;1.30;0.80;;;24.60;20.00;;;;;;2269621;61;20366;-62
2023/04/08 01:05:50;0.00;0.00;0.62;0.00;0.00;0.62;1.70;0.93;;;24.60;20.00;;;;;;2269477;61;20400;-63
2023/04/08 01:08:39;0.00;0.00;0.62;0.00;0.00;0.62;1.40;0.80;;;24.50;20.00;;;;;;2269192;61;20458;-62
2023/04/08 01:11:29;0.00;0.00;0.62;0.00;0.00;0.62;1.30;0.80;;;24.50;20.00;;;;;;2268959;61;20913;-61
2023/04/08 01:14:22;0.00;0.00;0.62;0.00;0.00;0.62;1.40;0.70;;;24.50;20.00;;;;;;2269233;61;20937;-65
2023/04/08 01:17:10;0.00;0.00;0.62;0.00;0.00;0.62;1.50;0.77;;;24.50;20.00;;;;;;2269475;61;20430;-62
2023/04/08 01:19:56;0.00;0.00;0.62;0.00;0.00;0.62;1.43;0.80;;;24.50;20.00;;;;;;2271942;61;20366;-62
2023/04/08 01:22:57;0.00;0.00;0.62;0.00;0.00;0.62;1.97;0.80;;;24.50;20.00;;;;;;2272322;61;20366;-62
2023/04/08 01:25:46;0.00;0.00;0.62;0.00;0.00;0.62;1.50;0.80;;;24.50;20.00;;;;;;2271814;61;20420;-66
2023/04/08 01:28:34;0.00;0.00;0.62;0.00;0.00;0.62;1.67;1.00;;;24.50;20.00;;;;;;2269053;61;20453;-68
2023/04/08 01:31:21;0.00;0.00;0.62;0.00;0.00;0.62;1.40;1.00;;;24.50;20.00;;;;;;2272549;60;20354;-63
2023/04/08 01:34:07;0.00;0.00;0.62;0.00;0.00;0.62;1.50;1.13;;;24.50;20.00;;;;;;2271717;61;20500;-65
2023/04/08 01:36:54;0.00;0.00;0.62;0.00;0.00;0.62;1.40;0.90;;;24.50;20.00;;;;;;2269202;61;20386;-62
2023/04/08 01:39:40;0.00;0.00;0.62;0.00;0.00;0.62;1.30;0.80;;;24.50;20.00;;;;;;2272206;61;20361;-62
2023/04/08 01:42:28;0.00;0.00;0.62;0.00;0.00;0.62;1.50;0.90;;;24.50;20.00;;;;;;2272759;61;20366;-62
2023/04/08 01:45:15;0.00;0.00;0.62;0.00;0.00;0.62;1.37;0.90;;;24.40;20.00;;;;;;2272245;61;20878;-62
2023/04/08 01:48:01;0.00;0.00;0.62;0.00;0.00;0.62;1.40;0.93;;;24.50;20.00;;;;;;2269100;61;20408;-62
2023/04/08 01:50:46;0.00;0.00;0.62;0.00;0.00;0.62;1.70;0.87;;;24.50;20.00;;;;;;2268690;61;20362;-61
2023/04/08 01:53:32;0.00;0.00;0.62;0.00;0.00;0.62;1.57;0.97;;;24.40;20.00;;;;;;2269178;61;20361;-63
2023/04/08 01:56:21;0.00;0.00;0.62;0.00;0.00;0.62;1.47;0.90;;;24.40;20.00;;;;;;2272175;61;20885;-62
2023/04/08 01:59:12;0.00;0.00;0.62;0.00;0.00;0.62;1.30;0.70;;;24.40;20.00;;;;;;2268886;61;20467;-62
2023/04/08 02:01:58;0.00;0.00;0.62;0.00;0.00;0.62;1.30;0.90;;;24.40;20.00;;;;;;2269289;61;20420;-66
2023/04/08 02:04:45;0.00;0.00;0.62;0.00;0.00;0.62;1.50;0.83;;;24.40;20.00;;;;;;2269275;61;20419;-65
2023/04/08 02:07:30;0.00;0.00;0.62;0.00;0.00;0.62;1.50;1.00;;;24.40;20.00;;;;;;2268907;61;20382;-62
2023/04/08 02:10:15;0.00;0.00;0.62;0.00;0.00;0.62;1.43;0.80;;;24.40;20.00;;;;;;2271680;61;20482;-65
2023/04/08 02:13:00;0.00;0.00;0.62;0.00;0.00;0.62;1.40;0.70;;;24.40;20.00;;;;;;2272325;61;20359;-61
2023/04/08 02:16:08;0.00;0.00;0.62;0.00;0.00;0.62;1.40;1.00;;;24.40;20.00;;;;;;2269266;61;20464;-62
2023/04/08 02:18:57;0.00;0.00;0.62;0.00;0.00;0.62;1.40;0.90;;;24.40;20.00;;;;;;2271632;61;20373;-61
2023/04/08 02:21:47;0.00;0.00;0.62;0.00;0.00;0.62;1.37;0.90;;;24.40;20.00;;;;;;2268762;61;20390;-62
2023/04/08 02:24:34;0.00;0.00;0.62;0.00;0.00;0.62;1.40;0.90;;;24.40;20.00;;;;;;2271862;61;20944;-62
2023/04/08 02:27:20;0.00;0.00;0.62;0.00;0.00;0.62;1.40;0.90;;;24.30;20.00;;;;;;2272543;61;20428;-61
2023/04/08 02:30:09;0.00;0.00;0.62;0.00;0.00;0.62;1.60;1.07;;;24.40;20.10;;;;;;2268868;61;20400;-61
2023/04/08 02:32:57;0.00;0.00;0.62;0.00;0.00;0.62;1.33;0.80;;;24.40;20.10;;;;;;2272130;61;20374;-61
2023/04/08 02:35:42;0.00;0.00;0.62;0.00;0.00;0.62;1.50;1.00;;;24.40;20.10;;;;;;2268962;61;20398;-61
2023/04/08 02:38:29;0.00;0.00;0.62;0.00;0.00;0.62;1.40;0.80;;;24.40;20.10;;;;;;2272364;61;20377;-62
2023/04/08 02:41:15;0.00;0.00;0.62;0.00;0.00;0.62;1.50;1.00;;;24.30;20.00;;;;;;2268458;61;20467;-68
2023/04/08 02:44:00;0.00;0.00;0.62;0.00;0.00;0.62;1.47;0.80;;;24.30;20.00;;;;;;2272227;61;20448;-62
2023/04/08 02:46:45;0.00;0.00;0.62;0.00;0.00;0.62;2.23;0.90;;;24.30;20.00;;;;;;2272040;61;20432;-65
2023/04/08 02:49:31;0.00;0.00;0.62;0.00;0.00;0.62;1.40;0.80;;;24.30;20.00;;;;;;2268805;61;20753;-63
2023/04/08 02:52:15;0.00;0.00;0.62;0.00;0.00;0.62;1.40;0.90;;;24.30;20.00;;;;;;2269079;61;20411;-62
2023/04/08 02:55:00;0.00;0.00;0.62;0.00;0.00;0.62;1.40;0.80;;;24.30;20.00;;;;;;2271922;61;20538;-62
2023/04/08 02:57:47;0.00;0.00;0.62;0.00;0.00;0.62;1.53;1.10;;;24.30;20.00;;;;;;2272208;61;20428;-60
2023/04/08 03:00:32;0.00;0.00;0.62;0.00;0.00;0.62;1.33;0.80;;;24.30;20.00;;;;;;2272117;61;20378;-62
2023/04/08 03:03:17;0.00;0.00;0.62;0.00;0.00;0.62;1.33;0.90;;;24.30;20.00;;;;;;2271730;61;20358;-62
2023/04/08 03:06:04;0.00;0.00;0.62;0.00;0.00;0.62;2.23;0.97;;;24.30;20.00;;;;;;2272132;61;20496;-62
2023/04/08 03:08:49;0.00;0.00;0.62;0.00;0.00;0.62;1.60;1.00;;;24.30;20.10;;;;;;2271787;61;20415;-62
2023/04/08 03:11:34;0.00;0.00;0.62;0.00;0.00;0.62;1.50;0.87;;;24.30;20.10;;;;;;2272548;61;20365;-62
2023/04/08 03:14:20;0.00;0.00;0.62;0.00;0.00;0.62;1.57;0.83;;;24.30;20.10;;;;;;2272112;61;20362;-62
2023/04/08 03:17:05;0.00;0.00;0.62;0.00;0.00;0.62;1.50;1.00;;;24.30;20.10;;;;;;2271855;61;20381;-61
2023/04/08 03:19:50;0.00;0.00;0.62;0.00;0.00;0.62;2.10;1.03;;;24.30;20.00;;;;;;2271841;61;20404;-62
2023/04/08 03:22:36;0.00;0.00;0.62;0.00;0.00;0.62;1.60;1.00;;;24.30;20.10;;;;;;2272027;61;20874;-62
2023/04/08 03:25:21;0.00;0.00;0.62;0.00;0.00;0.62;1.37;0.80;;;24.30;20.10;;;;;;2271742;61;20923;-65
2023/04/08 03:28:05;0.00;0.00;0.62;0.00;0.00;0.62;1.50;0.80;;;24.30;20.10;;;;;;2272110;61;20917;-62
2023/04/08 03:30:50;0.00;0.00;0.62;0.00;0.00;0.62;1.40;0.90;;;24.30;20.10;;;;;;2271491;61;20882;-58
2023/04/08 03:33:34;0.00;0.00;0.62;0.00;0.00;0.62;1.50;0.90;;;24.20;20.00;;;;;;2272503;61;20362;-61
2023/04/08 03:36:19;0.00;0.00;0.62;0.00;0.00;0.62;1.60;1.00;;;24.20;20.00;;;;;;2272062;61;20424;-62
2023/04/08 03:39:05;0.00;0.00;0.62;0.00;0.00;0.62;1.90;0.87;;;24.20;20.00;;;;;;2271729;61;20891;-61
2023/04/08 03:41:50;0.00;0.00;0.62;0.00;0.00;0.62;1.60;1.03;;;24.20;20.00;;;;;;2272115;61;20390;-62
2023/04/08 03:44:35;0.00;0.00;0.62;0.00;0.00;0.62;1.60;1.10;;;24.20;20.00;;;;;;2272015;61;20454;-61
2023/04/08 03:47:20;0.00;0.00;0.62;0.00;0.00;0.62;1.40;0.90;;;24.20;20.00;;;;;;2271559;61;20509;-60
2023/04/08 03:50:06;0.00;0.00;0.62;0.00;0.00;0.62;1.50;0.90;;;24.20;20.00;;;;;;2271732;61;20412;-62
2023/04/08 03:52:50;0.00;0.00;0.62;0.00;0.00;0.62;1.40;0.80;;;24.20;20.10;;;;;;2272305;61;20366;-62
2023/04/08 03:55:36;0.00;0.00;0.62;0.00;0.00;0.62;1.60;1.00;;;24.20;20.00;;;;;;2272973;61;20373;-62
2023/04/08 04:01:13;0.00;0.00;0.62;0.00;0.00;0.62;1.40;0.90;;;24.20;20.10;;;;;;2266062;61;20447;-62
2023/04/08 04:03:58;0.00;0.00;0.62;0.00;0.00;0.62;1.40;0.93;;;24.20;20.10;;;;;;2264651;61;20368;-63
2023/04/08 04:06:42;0.00;0.00;0.62;0.00;0.00;0.62;1.30;0.70;;;24.20;20.10;;;;;;2264777;61;21002;-62
2023/04/08 04:09:27;0.00;0.00;0.62;0.00;0.00;0.62;1.40;0.90;;;24.20;20.60;;;;;;2264047;61;20368;-60
2023/04/08 04:12:13;0.00;0.00;0.62;0.00;0.00;0.62;1.50;0.97;;;24.20;20.10;;;;;;2261203;61;20360;-62
2023/04/08 04:14:57;0.00;0.00;0.62;0.00;0.00;0.62;1.60;1.00;;;24.20;20.10;;;;;;2264874;61;20650;-62
2023/04/08 04:17:43;0.00;0.00;0.62;0.00;0.00;0.62;1.40;0.93;;;24.20;20.10;;;;;;2264661;61;20981;-64
2023/04/08 04:20:29;0.00;0.00;0.62;0.00;0.00;0.62;1.40;0.80;;;24.10;20.00;;;;;;2264030;61;20411;-62
2023/04/08 04:23:14;0.00;0.00;0.62;0.00;0.00;0.62;1.47;1.00;;;24.10;20.00;;;;;;2264317;61;20414;-62
2023/04/08 04:25:58;0.00;0.00;0.62;0.00;0.00;0.62;1.77;1.10;;;24.10;20.00;;;;;;2264982;61;20356;-60
2023/04/08 04:31:34;0.00;0.00;0.62;0.00;0.00;0.62;1.40;1.00;;;24.10;20.10;;;;;;2258070;61;20435;-64
2023/04/08 04:34:18;0.00;0.00;0.62;0.00;0.00;0.62;1.53;1.00;;;24.10;20.00;;;;;;2256105;61;20473;-62
2023/04/08 04:37:03;0.00;0.00;0.62;0.00;0.00;0.62;1.40;0.90;;;24.10;20.10;;;;;;2257911;61;20439;-62
2023/04/08 04:39:48;0.00;0.00;0.62;0.00;0.00;0.62;1.67;1.00;;;24.10;20.10;;;;;;2259915;61;20357;-62
2023/04/08 04:42:32;0.00;0.00;0.62;0.00;0.00;0.62;1.67;1.07;;;24.10;20.10;;;;;;2260441;61;20369;-63
2023/04/08 04:45:17;0.00;0.00;0.62;0.00;0.00;0.62;1.50;1.00;;;24.10;20.10;;;;;;2260040;61;20804;-62
2023/04/08 04:48:04;0.00;0.00;0.62;0.00;0.00;0.62;1.40;0.80;;;24.10;20.10;;;;;;2260786;61;20376;-62
2023/04/08 04:50:54;0.00;0.00;0.62;0.00;0.00;0.62;1.60;1.00;;;24.10;20.10;;;;;;2260294;61;20365;-62
2023/04/08 04:53:39;0.00;0.00;0.62;0.00;0.00;0.62;1.70;1.17;;;24.10;20.10;;;;;;2260164;61;20361;-63
2023/04/08 04:56:25;0.00;0.00;0.62;0.00;0.00;0.62;1.50;1.10;;;24.10;20.10;;;;;;2260357;61;20760;-62
2023/04/08 04:59:10;0.00;0.00;0.62;0.00;0.00;0.62;1.43;0.83;;;24.10;20.10;;;;;;2260479;61;20453;-62
2023/04/08 05:01:56;0.00;0.00;0.62;0.00;0.00;0.62;1.50;0.90;;;24.10;20.10;;;;;;2260009;61;20388;-64
2023/04/08 05:04:42;0.00;0.00;0.62;0.00;0.00;0.62;1.90;1.00;;;24.10;20.10;;;;;;2260177;61;20357;-64
2023/04/08 05:07:27;0.00;0.00;0.62;0.00;0.00;0.62;1.70;0.83;;;24.10;20.10;;;;;;2259896;61;20419;-64
2023/04/08 05:10:11;0.00;0.00;0.62;0.00;0.00;0.62;1.50;1.00;;;24.00;20.10;;;;;;2260088;61;20888;-64
2023/04/08 05:12:56;0.00;0.00;0.62;0.00;0.00;0.62;1.40;0.90;;;24.00;20.00;;;;;;2260356;61;20377;-61
2023/04/08 05:15:40;0.00;0.00;0.62;0.00;0.00;0.62;1.60;1.00;;;24.00;20.10;;;;;;2260203;61;20360;-62
2023/04/08 05:18:26;0.00;0.00;0.62;0.00;0.00;0.62;1.70;1.20;;;24.10;20.20;;;;;;2257267;61;20431;-62
2023/04/08 05:21:13;0.00;0.00;0.62;0.00;0.00;0.62;1.97;1.00;;;24.00;20.10;;;;;;2260261;61;20393;-62
2023/04/08 05:23:58;0.00;0.00;0.62;0.00;0.00;0.62;1.47;0.90;;;24.00;20.10;;;;;;2259994;61;20924;-61
2023/04/08 05:26:43;0.00;0.00;0.62;0.00;0.00;0.62;1.40;0.90;;;24.00;20.10;;;;;;2260415;61;20424;-61
2023/04/08 05:29:27;0.00;0.00;0.62;0.00;0.00;0.62;2.30;1.20;;;24.00;20.10;;;;;;2260326;61;20364;-61
2023/04/08 05:32:12;0.00;0.00;0.62;0.00;0.00;0.62;1.83;1.10;;;24.00;20.10;;;;;;2264338;61;20360;-61
2023/04/08 05:34:44;0.00;0.00;0.62;0.00;0.00;0.62;2.00;1.50;;;24.00;20.10;;;;;;2264341;61;20393;-60
2023/04/08 05:37:30;0.00;0.00;0.62;0.00;0.00;0.62;2.03;1.10;;;24.00;20.10;;;;;;2264259;61;20919;-62
2023/04/08 05:40:15;0.00;0.00;0.62;0.00;0.00;0.62;1.40;1.00;;;24.00;20.20;;;;;;2264335;61;20382;-62
2023/04/08 05:43:00;0.00;0.00;0.62;0.00;0.00;0.62;1.70;1.10;;;24.00;20.10;;;;;;2264264;61;20992;-60
2023/04/08 05:45:45;0.00;0.00;0.62;0.00;0.00;0.62;1.70;1.10;;;24.00;20.20;;;;;;2264007;61;20376;-61
2023/04/08 05:48:30;0.00;0.00;0.62;0.00;0.00;0.62;2.23;1.37;;;24.00;20.20;;;;;;2264218;61;20384;-62
2023/04/08 05:51:16;0.00;0.00;0.62;0.00;0.00;0.62;1.60;1.10;;;24.00;20.20;;;;;;2264352;61;20352;-61
2023/04/08 05:54:03;0.00;0.00;0.62;0.00;0.00;0.62;1.80;1.13;;;23.90;20.10;;;;;;2263845;61;20910;-62
2023/04/08 05:56:48;0.00;0.00;0.62;0.00;0.00;0.62;1.60;1.20;;;24.00;20.20;;;;;;2264157;61;21108;-62
2023/04/08 05:59:33;0.00;0.00;0.62;0.00;0.00;0.62;1.60;1.10;;;24.00;20.20;;;;;;2263693;61;20893;-61
2023/04/08 06:02:17;0.00;0.00;0.62;0.00;0.00;0.62;2.00;1.33;;;24.00;20.20;;;;;;2264075;61;20392;-61
2023/04/08 06:05:02;0.00;0.00;0.62;0.00;0.00;0.62;1.70;1.10;;;24.00;20.20;;;;;;2264158;61;20364;-63
2023/04/08 06:07:47;0.00;0.00;0.62;0.00;0.00;0.62;1.57;1.00;;;24.00;20.20;;;;;;2263849;61;20838;-64
2023/04/08 06:10:33;0.00;0.00;0.62;0.00;0.00;0.62;2.20;1.50;;;23.90;20.10;;;;;;2263779;61;20892;-63
2023/04/08 06:13:19;0.00;0.00;0.62;0.00;0.00;0.62;1.50;1.10;;;24.00;20.20;;;;;;2264129;61;20409;-64
2023/04/08 06:16:10;0.00;0.00;0.62;0.00;0.00;0.62;1.60;1.20;;;23.90;20.10;;;;;;2264167;61;20410;-64
2023/04/08 06:18:55;0.00;0.00;0.62;0.00;0.00;0.62;2.20;1.17;;;24.00;20.20;;;;;;2263814;61;20904;-64
2023/04/08 06:21:40;0.00;0.00;0.62;0.00;0.00;0.62;1.77;1.10;;;23.90;20.10;;;;;;2263602;61;20431;-63
2023/04/08 06:24:26;0.00;0.00;0.62;0.00;0.00;0.62;1.50;1.00;;;23.90;20.20;;;;;;2264247;61;20411;-64
2023/04/08 06:27:12;0.00;0.00;0.62;0.00;0.00;0.62;1.73;1.00;;;23.90;20.20;;;;;;2264329;61;20450;-62
2023/04/08 06:29:56;0.00;0.00;0.62;0.00;0.00;0.62;1.80;1.20;;;23.90;20.20;;;;;;2263461;61;20404;-61
2023/04/08 06:32:41;0.00;0.00;0.62;0.00;0.00;0.62;1.80;1.33;;;23.90;20.20;;;;;;2264361;61;20360;-62
2023/04/08 06:35:26;0.00;0.00;0.62;0.00;0.00;0.62;2.10;1.20;;;23.90;20.20;;;;;;2264255;61;20368;-60
2023/04/08 06:38:11;0.00;0.00;0.62;0.00;0.00;0.62;1.83;1.33;;;23.90;20.20;;;;;;2263880;61;20426;-61
2023/04/08 06:41:02;0.00;0.00;0.62;0.00;0.00;0.62;1.57;1.10;;;23.90;20.20;;;;;;2263855;61;20434;-62
2023/04/08 06:43:48;0.00;0.00;0.62;0.00;0.00;0.62;1.70;1.10;;;23.90;20.20;;;;;;2263710;61;20360;-62
2023/04/08 06:46:33;0.00;0.00;0.62;0.00;0.00;0.62;1.57;1.07;;;23.90;20.20;;;;;;2266442;61;20420;-62
2023/04/08 06:49:18;0.00;0.00;0.62;0.00;0.00;0.62;1.87;1.30;;;23.90;20.20;;;;;;2268108;61;20363;-62
2023/04/08 06:52:02;0.00;0.00;0.62;0.00;0.00;0.62;1.70;1.17;;;23.90;20.20;;;;;;2267302;61;20484;-60
2023/04/08 06:54:47;0.00;0.00;0.62;0.00;0.00;0.62;2.00;1.27;;;23.90;20.20;;;;;;2264088;61;20363;-65
2023/04/08 06:57:32;0.00;0.00;0.62;0.00;0.00;0.62;2.13;1.27;;;23.90;20.20;;;;;;2264266;61;20415;-62
2023/04/08 07:00:18;0.00;0.00;0.62;0.00;0.00;0.62;1.80;1.43;;;23.90;20.20;;;;;;2263372;61;20367;-61
2023/04/08 07:03:03;0.00;0.00;0.62;0.00;0.00;0.62;2.00;1.30;;;23.90;20.20;;;;;;2264106;61;20896;-62
2023/04/08 07:05:48;0.00;0.00;0.62;0.00;0.00;0.62;1.80;1.23;;;23.90;20.20;;;;;;2263631;61;20383;-61
2023/04/08 07:08:32;0.00;0.00;0.62;0.00;0.00;0.62;1.67;1.10;;;23.90;20.20;;;;;;2264154;61;20461;-62
2023/04/08 07:11:17;0.00;0.00;0.62;0.00;0.00;0.62;2.13;1.20;;;23.80;20.20;;;;;;2264226;61;20360;-63
2023/04/08 07:14:02;0.00;0.00;0.62;0.00;0.00;0.62;1.80;1.20;;;23.90;20.30;;;;;;2263772;61;20400;-61
2023/04/08 07:16:48;0.00;0.00;0.62;0.00;0.00;0.62;2.00;1.30;;;23.90;20.20;;;;;;2264253;61;20425;-62
2023/04/08 07:19:35;0.00;0.00;0.62;0.00;0.00;0.62;2.00;1.50;;;23.90;20.30;;;;;;2263693;61;20368;-61
2023/04/08 07:22:20;0.00;0.00;0.62;0.00;0.00;0.62;1.60;1.10;;;23.80;20.20;;;;;;2264098;61;20965;-62
2023/04/08 07:25:06;0.00;0.00;0.62;0.00;0.00;0.62;2.00;1.50;;;23.80;20.20;;;;;;2264696;61;20358;-65
2023/04/08 07:27:51;0.00;0.00;0.62;0.00;0.00;0.62;2.40;1.60;;;23.90;20.30;;;;;;2267739;61;20383;-62
2023/04/08 07:30:36;0.00;0.00;0.62;0.00;0.00;0.62;1.67;1.27;;;23.80;20.20;;;;;;2268403;61;20398;-63
2023/04/08 07:33:22;0.00;0.00;0.62;0.00;0.00;0.62;1.90;1.23;;;23.90;20.30;;;;;;2268752;61;20359;-62
2023/04/08 07:36:09;0.00;0.00;0.62;0.00;0.00;0.62;2.20;1.70;;;23.90;20.30;;;;;;2268491;61;20387;-62
2023/04/08 07:38:54;0.00;0.00;0.62;0.00;0.00;0.62;2.10;1.60;;;23.80;20.20;;;;;;2268363;61;20459;-62
2023/04/08 07:41:39;0.00;0.00;0.62;0.00;0.00;0.62;1.90;1.47;;;23.80;20.20;;;;;;2268922;61;20420;-62
2023/04/08 07:44:24;0.00;0.00;0.62;0.00;0.00;0.62;1.93;1.43;;;23.80;20.20;;;;;;2268573;61;20358;-62
2023/04/08 07:47:09;0.00;0.00;0.62;0.00;0.00;0.62;1.90;1.60;;;23.80;20.20;;;;;;2268618;61;20504;-62
2023/04/08 07:49:55;0.00;0.00;0.62;0.00;0.00;0.62;1.90;1.20;;;23.80;20.30;;;;;;2268498;61;20762;-62
2023/04/08 07:52:40;0.00;0.00;0.62;0.00;0.00;0.62;1.87;1.30;;;23.80;20.30;;;;;;2268907;61;20377;-67
2023/04/08 07:55:25;0.00;0.00;0.62;0.00;0.00;0.62;2.13;1.50;;;23.80;20.30;;;;;;2268459;61;20398;-64
2023/04/08 07:58:09;0.00;0.00;0.62;0.00;0.00;0.62;2.47;1.47;;;23.80;20.30;;;;;;2268250;61;20378;-65
2023/04/08 08:00:56;0.00;0.00;0.62;0.00;0.00;0.62;2.10;1.43;;;23.80;20.30;;;;;;2268247;61;20449;-62
2023/04/08 08:03:41;0.00;0.00;0.62;0.00;0.00;0.62;1.73;1.20;;;23.80;20.30;;;;;;2268533;61;20390;-64
2023/04/08 08:06:27;0.00;0.00;0.62;0.00;0.00;0.62;2.10;1.63;;;23.80;20.30;;;;;;2268296;61;20355;-66
2023/04/08 08:09:12;0.00;0.00;0.62;0.00;0.00;0.62;2.50;1.60;;;23.80;20.30;;;;;;2268383;61;20408;-61
2023/04/08 08:11:57;0.00;0.00;0.62;0.00;0.00;0.62;2.23;1.70;;;23.80;20.30;;;;;;2268760;61;20378;-62
2023/04/08 08:14:42;0.00;0.00;0.62;0.00;0.00;0.62;1.90;1.40;;;23.80;20.30;;;;;;2268682;61;20367;-62
2023/04/08 08:17:29;0.00;0.00;0.62;0.00;0.00;0.62;2.37;1.70;;;23.80;20.30;;;;;;2268770;61;20406;-62
2023/04/08 08:20:15;0.00;0.00;0.62;0.00;0.00;0.62;2.00;1.53;;;23.80;20.30;;;;;;2266625;61;20371;-63
2023/04/08 08:23:02;0.00;0.00;0.62;0.00;0.00;0.62;2.17;1.70;;;23.80;20.30;;;;;;2265422;61;20428;-60
2023/04/08 08:25:46;0.00;0.00;0.62;0.00;0.00;0.62;1.70;1.17;;;23.80;20.30;;;;;;2268982;61;20409;-61
2023/04/08 08:28:31;0.00;0.00;0.62;0.00;0.00;0.62;2.03;1.50;;;23.80;20.30;;;;;;2268435;61;20394;-62
2023/04/08 08:31:16;0.00;0.00;0.62;0.00;0.00;0.62;2.10;1.70;;;23.80;20.30;;;;;;2265289;61;21093;-62
2023/04/08 08:34:02;0.00;0.00;0.62;0.00;0.00;0.62;2.23;1.80;;;23.80;20.30;;;;;;2268786;61;20371;-65
2023/04/08 08:36:47;0.00;0.00;0.62;0.00;0.00;0.62;3.70;2.23;;;23.80;20.30;;;;;;2268626;61;20398;-61
2023/04/08 08:39:33;0.00;0.00;0.62;0.00;0.00;0.62;1.90;1.33;;;23.80;20.30;;;;;;2268281;61;20771;-62
2023/04/08 08:42:20;0.00;0.00;0.62;0.00;0.00;0.62;2.43;1.93;;;23.80;20.30;;;;;;2268299;61;20437;-63
2023/04/08 08:45:07;0.00;0.00;0.62;0.00;0.00;0.62;2.77;2.07;;;23.80;20.40;;;;;;2268639;61;20363;-61
2023/04/08 08:47:52;0.00;0.00;0.62;0.00;0.00;0.62;3.10;2.00;;;23.80;20.40;;;;;;2265634;61;20405;-63
2023/04/08 08:50:36;0.00;0.00;0.62;0.00;0.00;0.62;2.40;2.03;;;23.80;20.40;;;;;;2267891;61;20872;-60
2023/04/08 08:53:28;0.00;0.00;0.62;0.00;0.00;0.62;3.77;2.70;;;23.80;20.40;;;;;;2268150;61;20907;-63
2023/04/08 08:56:14;0.00;0.00;0.62;0.00;0.00;0.62;3.30;2.60;;;23.80;20.40;;;;;;2268818;61;20359;-62
2023/04/08 08:58:59;0.00;0.00;0.62;0.00;0.00;0.62;3.87;2.53;;;23.80;20.40;;;;;;2268462;61;20411;-62
2023/04/08 09:01:44;0.00;0.00;0.62;0.00;0.00;0.62;3.40;3.03;;;23.80;20.40;;;;;;2265296;61;20383;-62
2023/04/08 09:04:29;0.00;0.00;0.62;0.00;0.00;0.62;3.17;2.80;;;23.80;20.40;;;;;;2268108;61;20363;-61
2023/04/08 09:07:14;0.00;0.00;0.62;0.00;0.00;0.62;3.27;2.97;;;23.80;20.40;;;;;;2268632;61;20487;-62
2023/04/08 09:09:59;0.00;0.00;0.62;0.00;0.00;0.62;4.10;3.43;;;23.80;20.40;;;;;;2268300;61;20366;-64
2023/04/08 09:12:55;0.00;0.00;0.62;0.00;0.00;0.62;4.20;3.20;;;23.80;20.40;;;;;;2267923;61;20888;-63
2023/04/08 09:16:03;0.00;0.00;0.62;0.00;0.00;0.62;4.03;3.43;;;23.80;20.40;;;;;;2268406;61;20359;-64
2023/04/08 09:18:48;0.00;0.00;0.62;0.00;0.00;0.62;3.87;3.00;;;23.80;20.40;;;;;;2267976;61;20355;-62
2023/04/08 09:21:34;0.00;0.00;0.62;0.00;0.00;0.62;4.50;3.70;;;23.80;20.40;;;;;;2268713;61;20379;-60
2023/04/08 09:24:27;0.00;0.00;0.62;0.00;0.00;0.62;3.80;3.40;;;23.80;20.40;;;;;;2268333;61;20917;-62
2023/04/08 09:27:13;0.00;0.00;0.62;0.00;0.00;0.62;4.53;3.77;;;23.80;20.40;;;;;;2267408;61;20372;-64
2023/04/08 09:32:56;0.00;0.00;0.62;0.00;0.00;0.62;5.70;4.73;;;23.80;20.40;;;;;;1676114;73;20481;-65
2023/04/08 09:35:41;0.00;0.00;0.62;0.00;0.00;0.62;6.43;5.80;;;23.80;20.60;;;;;;2267422;61;20352;-66
2023/04/08 09:38:26;0.00;0.00;0.62;0.00;0.00;0.62;6.30;5.60;;;23.80;20.50;;;;;;2267639;61;21123;-66
2023/04/08 09:41:15;0.00;0.00;0.62;0.00;0.00;0.62;6.80;6.10;;;23.80;20.50;;;;;;2266763;61;20359;-69
2023/04/08 09:44:03;0.00;0.00;0.62;0.00;0.00;0.62;9.57;7.50;;;23.80;20.50;;;;;;2267953;61;20748;-66
2023/04/08 09:47:00;0.00;0.00;0.62;0.00;0.00;0.62;8.83;6.73;;;23.80;20.50;;;;;;2267191;61;20380;-69
2023/04/08 09:49:54;0.00;0.00;0.62;0.00;0.00;0.62;8.87;7.07;;;23.70;20.50;;;;;;2267233;61;20397;-65
2023/04/08 09:52:45;0.00;0.00;0.62;0.00;0.00;0.62;7.50;6.37;;;23.70;20.40;;;;;;2267723;61;20453;-66
2023/04/08 09:55:36;0.00;0.00;0.62;0.00;0.00;0.62;8.97;6.40;;;23.70;20.50;;;;;;2267914;61;20370;-67
2023/04/08 09:58:28;0.00;0.00;0.62;0.00;0.00;0.62;6.87;6.17;;;23.70;20.60;;;;;;2268128;61;20445;-71
2023/04/08 10:01:15;0.00;0.00;0.62;0.00;0.00;0.62;7.10;6.10;;;23.70;20.60;;;;;;2267526;61;20405;-68
2023/04/08 10:04:06;0.00;0.00;0.62;0.00;0.00;0.62;6.90;6.17;;;23.60;20.50;;;;;;2267644;61;20360;-69
2023/04/08 10:06:57;0.00;0.00;0.62;0.00;0.00;0.62;7.77;6.03;;;23.60;20.60;;;;;;2267440;61;20379;-65
2023/04/08 10:09:42;0.00;0.00;0.62;0.00;0.00;0.62;6.80;6.07;;;23.60;20.60;;;;;;2267579;61;20417;-69
2023/04/08 10:12:27;0.00;0.00;0.62;0.00;0.00;0.62;6.27;5.30;;;23.60;20.60;;;;;;2267606;61;20394;-67
2023/04/08 10:15:26;0.00;0.00;0.62;0.00;0.00;0.62;6.63;5.30;;;23.70;20.70;;;;;;2267615;61;20377;-71
2023/04/08 10:18:30;0.00;0.00;0.62;0.00;0.00;0.62;5.73;4.97;;;23.60;20.60;;;;;;2267602;61;20463;-70
2023/04/08 10:21:36;0.00;0.00;0.62;0.00;0.00;0.62;6.90;5.43;;;23.60;20.60;;;;;;2266962;61;20354;-68
2023/04/08 10:24:24;0.00;0.00;0.62;0.00;0.00;0.62;6.40;5.30;;;23.60;20.70;;;;;;2267785;61;20453;-69
2023/04/08 10:27:39;0.00;0.00;0.62;0.00;0.00;0.62;5.43;4.87;;;23.60;20.70;;;;;;2267285;61;20432;-68
2023/04/08 10:30:43;0.00;0.00;0.62;0.00;0.00;0.62;4.63;3.93;;;23.60;20.70;;;;;;2267538;61;20430;-67
2023/04/08 10:33:35;0.00;0.00;0.62;0.00;0.00;0.62;6.27;5.03;;;23.60;20.70;;;;;;2267241;61;20767;-67
2023/04/08 10:36:20;0.00;0.00;0.62;0.00;0.00;0.62;5.93;5.20;;;23.60;20.70;;;;;;2267603;61;20665;-69
2023/04/08 10:39:04;0.00;0.00;0.62;0.00;0.00;0.62;5.37;4.87;;;23.60;20.80;;;;;;2267078;61;20387;-67
2023/04/08 10:41:51;0.00;0.00;0.62;0.00;0.00;0.62;8.00;5.00;;;23.60;20.80;;;;;;2266952;61;20872;-68
2023/04/08 10:44:35;0.00;0.00;0.62;0.00;0.00;0.62;6.73;4.73;;;23.60;20.80;;;;;;2264679;61;20403;-68
2023/04/08 10:47:26;0.00;0.00;0.62;0.00;0.00;0.62;5.60;5.00;;;23.60;20.70;;;;;;2301431;39;20865;-69
2023/04/08 10:50:16;0.00;0.00;0.62;0.00;0.00;0.62;5.33;4.70;;;23.60;20.80;;;;;;2268651;61;20375;-68
2023/04/08 10:53:01;0.00;0.00;0.62;0.00;0.00;0.62;6.40;5.17;;;23.60;20.80;;;;;;2268783;61;20362;-69
2023/04/08 10:55:46;0.00;0.00;0.62;0.00;0.00;0.62;6.80;5.03;;;23.60;20.80;;;;;;2268490;61;20413;-67
2023/04/08 10:58:32;0.00;0.00;0.62;0.00;0.00;0.62;7.00;5.63;;;23.60;20.80;;;;;;2272587;61;20796;-68
2023/04/08 11:01:18;0.00;0.00;0.62;0.00;0.00;0.62;5.10;4.27;;;23.60;20.80;;;;;;2272912;60;20395;-67
2023/04/08 11:04:10;0.00;0.00;0.62;0.00;0.00;0.62;6.40;4.63;;;23.50;20.70;;;;;;2272794;60;20362;-69
2023/04/08 11:06:55;0.00;0.00;0.62;0.00;0.00;0.62;4.97;4.47;;;23.60;20.80;;;;;;2273008;60;20375;-68